sensor_id;sensor_type;location;lat;lon;timestamp;P1;durP1;ratioP1;P2;durP2;ratioP2
49310;SDS011;35177;45.900;5.946;2023-04-05T00:00:48;5.70;;;2.72;;
49310;SDS011;35177;45.900;5.946;2023-04-05T00:03:14;6.80;;;3.00;;
49310;SDS011;35177;45.900;5.946;2023-04-05T00:05:41;4.70;;;2.92;;
49310;SDS011;35177;45.900;5.946;2023-04-05T00:08:07;5.57;;;3.10;;
49310;SDS011;35177;45.900;5.946;2023-04-05T00:10:37;5.40;;;3.28;;
49310;SDS011;35177;45.900;5.946;2023-04-05T00:13:03;4.25;;;2.70;;
49310;SDS011;35177;45.900;5.946;2023-04-05T00:15:28;4.88;;;2.80;;
49310;SDS011;35177;45.900;5.946;2023-04-05T00:17:55;4.85;;;3.10;;
49310;SDS011;35177;45.900;5.946;2023-04-05T00:20:22;5.00;;;3.20;;
49310;SDS011;35177;45.900;5.946;2023-04-05T00:22:47;5.35;;;2.75;;
49310;SDS011;35177;45.900;5.946;2023-04-05T00:25:14;3.95;;;2.47;;
49310;SDS011;35177;45.900;5.946;2023-04-05T00:27:41;5.70;;;3.20;;
49310;SDS011;35177;45.900;5.946;2023-04-05T00:30:07;5.22;;;3.10;;
49310;SDS011;35177;45.900;5.946;2023-04-05T00:32:32;5.78;;;2.85;;
49310;SDS011;35177;45.900;5.946;2023-04-05T00:34:58;3.63;;;2.50;;
49310;SDS011;35177;45.900;5.946;2023-04-05T00:37:23;4.13;;;2.90;;
49310;SDS011;35177;45.900;5.946;2023-04-05T00:39:49;3.90;;;3.13;;
49310;SDS011;35177;45.900;5.946;2023-04-05T00:42:14;6.13;;;3.17;;
49310;SDS011;35177;45.900;5.946;2023-04-05T00:44:39;4.03;;;2.83;;
49310;SDS011;35177;45.900;5.946;2023-04-05T00:47:05;4.00;;;3.15;;
49310;SDS011;35177;45.900;5.946;2023-04-05T00:49:31;5.20;;;2.97;;
49310;SDS011;35177;45.900;5.946;2023-04-05T00:51:57;4.25;;;2.92;;
49310;SDS011;35177;45.900;5.946;2023-04-05T00:54:23;5.78;;;3.20;;
49310;SDS011;35177;45.900;5.946;2023-04-05T00:56:49;5.15;;;3.25;;
49310;SDS011;35177;45.900;5.946;2023-04-05T00:59:17;4.47;;;3.50;;
49310;SDS011;35177;45.900;5.946;2023-04-05T01:01:42;5.32;;;3.40;;
49310;SDS011;35177;45.900;5.946;2023-04-05T01:04:07;5.97;;;3.55;;
49310;SDS011;35177;45.900;5.946;2023-04-05T01:06:43;4.85;;;3.35;;
49310;SDS011;35177;45.900;5.946;2023-04-05T01:14:12;4.35;;;3.10;;
49310;SDS011;35177;45.900;5.946;2023-04-05T01:16:38;4.00;;;3.20;;
49310;SDS011;35177;45.900;5.946;2023-04-05T01:19:03;5.85;;;3.10;;
49310;SDS011;35177;45.900;5.946;2023-04-05T01:31:49;4.78;;;3.50;;
49310;SDS011;35177;45.900;5.946;2023-04-05T01:36:42;6.90;;;3.58;;
49310;SDS011;35177;45.900;5.946;2023-04-05T01:39:10;4.70;;;3.30;;
49310;SDS011;35177;45.900;5.946;2023-04-05T01:41:37;5.38;;;3.67;;
49310;SDS011;35177;45.900;5.946;2023-04-05T01:44:03;6.97;;;3.35;;
49310;SDS011;35177;45.900;5.946;2023-04-05T01:46:28;6.78;;;3.17;;
49310;SDS011;35177;45.900;5.946;2023-04-05T01:48:53;3.70;;;3.30;;
49310;SDS011;35177;45.900;5.946;2023-04-05T01:51:18;3.55;;;3.15;;
49310;SDS011;35177;45.900;5.946;2023-04-05T01:53:45;7.72;;;4.07;;
49310;SDS011;35177;45.900;5.946;2023-04-05T01:56:10;8.80;;;3.92;;
49310;SDS011;35177;45.900;5.946;2023-04-05T01:58:35;8.50;;;4.07;;
49310;SDS011;35177;45.900;5.946;2023-04-05T02:01:00;5.50;;;3.42;;
49310;SDS011;35177;45.900;5.946;2023-04-05T02:03:26;5.65;;;3.58;;
49310;SDS011;35177;45.900;5.946;2023-04-05T02:05:51;4.18;;;3.17;;
49310;SDS011;35177;45.900;5.946;2023-04-05T02:08:17;6.47;;;3.50;;
49310;SDS011;35177;45.900;5.946;2023-04-05T02:10:42;5.03;;;3.17;;
49310;SDS011;35177;45.900;5.946;2023-04-05T02:13:08;6.30;;;3.83;;
49310;SDS011;35177;45.900;5.946;2023-04-05T02:15:33;5.25;;;3.40;;
49310;SDS011;35177;45.900;5.946;2023-04-05T02:17:59;6.68;;;4.15;;
49310;SDS011;35177;45.900;5.946;2023-04-05T02:20:26;5.30;;;3.58;;
49310;SDS011;35177;45.900;5.946;2023-04-05T02:22:51;5.53;;;3.88;;
49310;SDS011;35177;45.900;5.946;2023-04-05T02:25:17;6.60;;;4.00;;
49310;SDS011;35177;45.900;5.946;2023-04-05T02:27:43;5.57;;;3.80;;
49310;SDS011;35177;45.900;5.946;2023-04-05T02:30:08;6.47;;;3.60;;
49310;SDS011;35177;45.900;5.946;2023-04-05T02:32:34;4.97;;;3.35;;
49310;SDS011;35177;45.900;5.946;2023-04-05T02:35:00;5.35;;;3.50;;
49310;SDS011;35177;45.900;5.946;2023-04-05T02:37:25;4.90;;;3.78;;
49310;SDS011;35177;45.900;5.946;2023-04-05T02:39:51;5.10;;;3.75;;
49310;SDS011;35177;45.900;5.946;2023-04-05T02:42:16;6.05;;;4.15;;
49310;SDS011;35177;45.900;5.946;2023-04-05T02:44:42;5.15;;;3.70;;
49310;SDS011;35177;45.900;5.946;2023-04-05T02:47:07;6.53;;;4.30;;
49310;SDS011;35177;45.900;5.946;2023-04-05T02:49:32;4.35;;;3.55;;
49310;SDS011;35177;45.900;5.946;2023-04-05T02:51:58;8.55;;;3.95;;
49310;SDS011;35177;45.900;5.946;2023-04-05T02:54:23;5.38;;;4.10;;
49310;SDS011;35177;45.900;5.946;2023-04-05T02:56:48;6.18;;;4.43;;
49310;SDS011;35177;45.900;5.946;2023-04-05T02:59:14;7.63;;;4.38;;
49310;SDS011;35177;45.900;5.946;2023-04-05T03:01:39;5.20;;;3.70;;
49310;SDS011;35177;45.900;5.946;2023-04-05T03:04:10;6.25;;;4.80;;
49310;SDS011;35177;45.900;5.946;2023-04-05T03:06:41;5.78;;;4.28;;
49310;SDS011;35177;45.900;5.946;2023-04-05T03:09:13;7.10;;;4.30;;
49310;SDS011;35177;45.900;5.946;2023-04-05T03:11:38;5.20;;;4.15;;
49310;SDS011;35177;45.900;5.946;2023-04-05T03:14:04;7.63;;;4.22;;
49310;SDS011;35177;45.900;5.946;2023-04-05T03:16:29;6.20;;;4.38;;
49310;SDS011;35177;45.900;5.946;2023-04-05T03:18:54;9.85;;;3.90;;
49310;SDS011;35177;45.900;5.946;2023-04-05T03:21:21;6.15;;;4.30;;
49310;SDS011;35177;45.900;5.946;2023-04-05T03:23:46;6.82;;;3.88;;
49310;SDS011;35177;45.900;5.946;2023-04-05T03:26:12;6.25;;;4.00;;
49310;SDS011;35177;45.900;5.946;2023-04-05T03:28:39;5.13;;;4.32;;
49310;SDS011;35177;45.900;5.946;2023-04-05T03:31:08;8.65;;;4.53;;
49310;SDS011;35177;45.900;5.946;2023-04-05T03:33:34;9.02;;;4.72;;
49310;SDS011;35177;45.900;5.946;2023-04-05T03:36:00;6.38;;;4.40;;
49310;SDS011;35177;45.900;5.946;2023-04-05T03:38:25;5.72;;;3.83;;
49310;SDS011;35177;45.900;5.946;2023-04-05T03:40:52;6.05;;;4.72;;
49310;SDS011;35177;45.900;5.946;2023-04-05T03:43:17;6.93;;;4.32;;
49310;SDS011;35177;45.900;5.946;2023-04-05T03:45:43;7.32;;;4.75;;
49310;SDS011;35177;45.900;5.946;2023-04-05T03:48:08;7.40;;;4.53;;
49310;SDS011;35177;45.900;5.946;2023-04-05T03:50:33;7.70;;;4.68;;
49310;SDS011;35177;45.900;5.946;2023-04-05T03:52:59;6.72;;;4.32;;
49310;SDS011;35177;45.900;5.946;2023-04-05T03:55:24;7.82;;;5.07;;
49310;SDS011;35177;45.900;5.946;2023-04-05T03:57:50;8.07;;;4.72;;
49310;SDS011;35177;45.900;5.946;2023-04-05T04:00:16;6.88;;;4.53;;
49310;SDS011;35177;45.900;5.946;2023-04-05T04:02:42;7.65;;;4.72;;
49310;SDS011;35177;45.900;5.946;2023-04-05T04:05:08;8.40;;;4.60;;
49310;SDS011;35177;45.900;5.946;2023-04-05T04:07:33;6.10;;;4.13;;
49310;SDS011;35177;45.900;5.946;2023-04-05T04:09:58;7.65;;;3.88;;
49310;SDS011;35177;45.900;5.946;2023-04-05T04:12:23;6.35;;;4.40;;
49310;SDS011;35177;45.900;5.946;2023-04-05T04:14:49;8.98;;;4.35;;
49310;SDS011;35177;45.900;5.946;2023-04-05T04:17:47;7.65;;;4.32;;
49310;SDS011;35177;45.900;5.946;2023-04-05T04:20:06;6.00;;;4.30;;
49310;SDS011;35177;45.900;5.946;2023-04-05T04:22:35;5.63;;;4.70;;
49310;SDS011;35177;45.900;5.946;2023-04-05T04:25:03;8.30;;;4.63;;
49310;SDS011;35177;45.900;5.946;2023-04-05T04:27:29;6.68;;;4.45;;
49310;SDS011;35177;45.900;5.946;2023-04-05T04:29:54;8.55;;;4.38;;
49310;SDS011;35177;45.900;5.946;2023-04-05T04:32:20;8.23;;;4.65;;
49310;SDS011;35177;45.900;5.946;2023-04-05T04:34:50;5.97;;;4.40;;
49310;SDS011;35177;45.900;5.946;2023-04-05T04:37:18;7.82;;;4.45;;
49310;SDS011;35177;45.900;5.946;2023-04-05T04:39:47;6.70;;;4.68;;
49310;SDS011;35177;45.900;5.946;2023-04-05T04:42:12;8.13;;;5.47;;
49310;SDS011;35177;45.900;5.946;2023-04-05T04:44:40;7.00;;;4.75;;
49310;SDS011;35177;45.900;5.946;2023-04-05T04:47:06;7.75;;;5.25;;
49310;SDS011;35177;45.900;5.946;2023-04-05T04:49:37;8.43;;;4.53;;
49310;SDS011;35177;45.900;5.946;2023-04-05T04:52:03;6.43;;;4.32;;
49310;SDS011;35177;45.900;5.946;2023-04-05T04:54:28;11.18;;;5.07;;
49310;SDS011;35177;45.900;5.946;2023-04-05T04:56:54;8.50;;;5.38;;
49310;SDS011;35177;45.900;5.946;2023-04-05T04:59:19;6.50;;;4.65;;
49310;SDS011;35177;45.900;5.946;2023-04-05T05:01:45;9.50;;;4.88;;
49310;SDS011;35177;45.900;5.946;2023-04-05T05:04:10;9.68;;;4.40;;
49310;SDS011;35177;45.900;5.946;2023-04-05T05:06:36;7.75;;;4.70;;
49310;SDS011;35177;45.900;5.946;2023-04-05T05:09:01;8.02;;;5.40;;
49310;SDS011;35177;45.900;5.946;2023-04-05T05:11:27;7.88;;;4.70;;
49310;SDS011;35177;45.900;5.946;2023-04-05T05:13:53;7.88;;;5.07;;
49310;SDS011;35177;45.900;5.946;2023-04-05T05:16:18;7.05;;;5.00;;
49310;SDS011;35177;45.900;5.946;2023-04-05T05:18:45;7.43;;;4.85;;
49310;SDS011;35177;45.900;5.946;2023-04-05T05:21:12;8.15;;;5.10;;
49310;SDS011;35177;45.900;5.946;2023-04-05T05:23:37;7.60;;;4.78;;
49310;SDS011;35177;45.900;5.946;2023-04-05T05:26:03;6.88;;;4.43;;
49310;SDS011;35177;45.900;5.946;2023-04-05T05:28:28;7.40;;;4.93;;
49310;SDS011;35177;45.900;5.946;2023-04-05T05:30:53;9.55;;;4.75;;
49310;SDS011;35177;45.900;5.946;2023-04-05T05:33:18;6.88;;;4.68;;
49310;SDS011;35177;45.900;5.946;2023-04-05T05:35:48;11.85;;;6.28;;
49310;SDS011;35177;45.900;5.946;2023-04-05T05:38:13;7.57;;;4.60;;
49310;SDS011;35177;45.900;5.946;2023-04-05T05:40:39;8.35;;;5.18;;
49310;SDS011;35177;45.900;5.946;2023-04-05T05:43:04;7.13;;;4.18;;
49310;SDS011;35177;45.900;5.946;2023-04-05T05:45:29;5.28;;;4.05;;
49310;SDS011;35177;45.900;5.946;2023-04-05T05:47:56;7.40;;;4.22;;
49310;SDS011;35177;45.900;5.946;2023-04-05T05:50:22;5.80;;;4.32;;
49310;SDS011;35177;45.900;5.946;2023-04-05T05:52:47;5.18;;;3.80;;
49310;SDS011;35177;45.900;5.946;2023-04-05T05:55:12;5.78;;;4.30;;
49310;SDS011;35177;45.900;5.946;2023-04-05T05:57:37;6.13;;;4.50;;
49310;SDS011;35177;45.900;5.946;2023-04-05T06:00:03;5.78;;;4.03;;
49310;SDS011;35177;45.900;5.946;2023-04-05T06:02:33;6.75;;;3.70;;
49310;SDS011;35177;45.900;5.946;2023-04-05T06:04:58;7.53;;;4.32;;
49310;SDS011;35177;45.900;5.946;2023-04-05T06:07:24;5.47;;;3.80;;
49310;SDS011;35177;45.900;5.946;2023-04-05T06:09:49;6.25;;;3.72;;
49310;SDS011;35177;45.900;5.946;2023-04-05T06:12:14;7.78;;;3.67;;
49310;SDS011;35177;45.900;5.946;2023-04-05T06:14:40;6.38;;;3.67;;
49310;SDS011;35177;45.900;5.946;2023-04-05T06:17:05;8.18;;;4.00;;
49310;SDS011;35177;45.900;5.946;2023-04-05T06:19:30;6.60;;;4.22;;
49310;SDS011;35177;45.900;5.946;2023-04-05T06:21:56;5.63;;;3.75;;
49310;SDS011;35177;45.900;5.946;2023-04-05T06:24:21;6.40;;;4.28;;
49310;SDS011;35177;45.900;5.946;2023-04-05T06:26:46;5.85;;;4.13;;
49310;SDS011;35177;45.900;5.946;2023-04-05T06:29:11;6.93;;;3.83;;
49310;SDS011;35177;45.900;5.946;2023-04-05T06:31:37;7.95;;;4.70;;
49310;SDS011;35177;45.900;5.946;2023-04-05T06:34:02;6.18;;;4.53;;
49310;SDS011;35177;45.900;5.946;2023-04-05T06:36:31;5.57;;;4.10;;
49310;SDS011;35177;45.900;5.946;2023-04-05T06:38:58;6.05;;;4.20;;
49310;SDS011;35177;45.900;5.946;2023-04-05T06:41:23;8.20;;;4.35;;
49310;SDS011;35177;45.900;5.946;2023-04-05T06:43:48;5.63;;;4.18;;
49310;SDS011;35177;45.900;5.946;2023-04-05T06:46:14;6.88;;;4.60;;
49310;SDS011;35177;45.900;5.946;2023-04-05T06:48:39;8.10;;;4.35;;
49310;SDS011;35177;45.900;5.946;2023-04-05T06:51:05;7.03;;;4.55;;
49310;SDS011;35177;45.900;5.946;2023-04-05T06:53:30;7.50;;;4.38;;
49310;SDS011;35177;45.900;5.946;2023-04-05T06:55:56;7.05;;;4.63;;
49310;SDS011;35177;45.900;5.946;2023-04-05T06:58:21;7.00;;;4.43;;
49310;SDS011;35177;45.900;5.946;2023-04-05T07:00:56;5.28;;;4.15;;
49310;SDS011;35177;45.900;5.946;2023-04-05T07:03:21;6.38;;;4.13;;
49310;SDS011;35177;45.900;5.946;2023-04-05T07:05:50;5.53;;;3.85;;
49310;SDS011;35177;45.900;5.946;2023-04-05T07:08:16;5.53;;;3.70;;
49310;SDS011;35177;45.900;5.946;2023-04-05T07:10:41;11.15;;;7.40;;
49310;SDS011;35177;45.900;5.946;2023-04-05T07:13:06;6.20;;;4.40;;
49310;SDS011;35177;45.900;5.946;2023-04-05T07:15:32;5.45;;;4.03;;
49310;SDS011;35177;45.900;5.946;2023-04-05T07:17:57;8.48;;;4.57;;
49310;SDS011;35177;45.900;5.946;2023-04-05T07:20:22;4.53;;;3.80;;
49310;SDS011;35177;45.900;5.946;2023-04-05T07:22:48;7.00;;;4.03;;
49310;SDS011;35177;45.900;5.946;2023-04-05T07:25:13;5.13;;;3.80;;
49310;SDS011;35177;45.900;5.946;2023-04-05T07:27:38;21.63;;;12.85;;
49310;SDS011;35177;45.900;5.946;2023-04-05T07:30:04;12.88;;;8.18;;
49310;SDS011;35177;45.900;5.946;2023-04-05T07:32:30;7.70;;;3.72;;
49310;SDS011;35177;45.900;5.946;2023-04-05T07:34:55;4.93;;;3.60;;
49310;SDS011;35177;45.900;5.946;2023-04-05T07:37:20;6.97;;;4.05;;
49310;SDS011;35177;45.900;5.946;2023-04-05T07:39:46;6.18;;;3.85;;
49310;SDS011;35177;45.900;5.946;2023-04-05T07:42:11;5.13;;;3.35;;
49310;SDS011;35177;45.900;5.946;2023-04-05T07:44:36;5.32;;;3.58;;
49310;SDS011;35177;45.900;5.946;2023-04-05T07:47:01;6.50;;;3.55;;
49310;SDS011;35177;45.900;5.946;2023-04-05T07:49:28;6.30;;;3.35;;
49310;SDS011;35177;45.900;5.946;2023-04-05T07:51:54;5.55;;;3.40;;
49310;SDS011;35177;45.900;5.946;2023-04-05T07:54:20;5.10;;;3.40;;
49310;SDS011;35177;45.900;5.946;2023-04-05T07:56:45;4.78;;;3.60;;
49310;SDS011;35177;45.900;5.946;2023-04-05T07:59:11;7.22;;;3.55;;
49310;SDS011;35177;45.900;5.946;2023-04-05T08:01:37;4.85;;;3.45;;
49310;SDS011;35177;45.900;5.946;2023-04-05T08:04:02;5.97;;;3.42;;
49310;SDS011;35177;45.900;5.946;2023-04-05T08:06:27;5.53;;;3.40;;
49310;SDS011;35177;45.900;5.946;2023-04-05T08:08:52;5.10;;;3.22;;
49310;SDS011;35177;45.900;5.946;2023-04-05T08:11:18;5.30;;;3.40;;
49310;SDS011;35177;45.900;5.946;2023-04-05T08:13:43;5.95;;;3.80;;
49310;SDS011;35177;45.900;5.946;2023-04-05T08:16:09;4.38;;;3.40;;
49310;SDS011;35177;45.900;5.946;2023-04-05T08:18:35;7.57;;;3.83;;
49310;SDS011;35177;45.900;5.946;2023-04-05T08:21:00;6.40;;;3.67;;
49310;SDS011;35177;45.900;5.946;2023-04-05T08:23:26;7.03;;;3.95;;
49310;SDS011;35177;45.900;5.946;2023-04-05T08:25:51;8.63;;;4.22;;
49310;SDS011;35177;45.900;5.946;2023-04-05T08:28:17;9.80;;;6.07;;
49310;SDS011;35177;45.900;5.946;2023-04-05T08:30:42;5.47;;;3.50;;
49310;SDS011;35177;45.900;5.946;2023-04-05T08:33:08;7.75;;;3.60;;
49310;SDS011;35177;45.900;5.946;2023-04-05T08:35:36;7.55;;;3.92;;
49310;SDS011;35177;45.900;5.946;2023-04-05T08:38:02;4.47;;;3.35;;
49310;SDS011;35177;45.900;5.946;2023-04-05T08:40:32;5.55;;;3.47;;
49310;SDS011;35177;45.900;5.946;2023-04-05T08:43:02;6.47;;;3.88;;
49310;SDS011;35177;45.900;5.946;2023-04-05T08:45:30;6.38;;;3.80;;
49310;SDS011;35177;45.900;5.946;2023-04-05T08:47:57;5.40;;;4.07;;
49310;SDS011;35177;45.900;5.946;2023-04-05T08:50:22;5.70;;;3.70;;
49310;SDS011;35177;45.900;5.946;2023-04-05T08:52:48;4.82;;;3.90;;
49310;SDS011;35177;45.900;5.946;2023-04-05T08:55:14;5.70;;;3.58;;
49310;SDS011;35177;45.900;5.946;2023-04-05T08:57:39;4.05;;;3.17;;
49310;SDS011;35177;45.900;5.946;2023-04-05T09:00:07;5.63;;;3.50;;
49310;SDS011;35177;45.900;5.946;2023-04-05T09:02:32;6.03;;;3.45;;
49310;SDS011;35177;45.900;5.946;2023-04-05T09:04:58;5.03;;;3.67;;
49310;SDS011;35177;45.900;5.946;2023-04-05T09:07:24;5.00;;;3.50;;
49310;SDS011;35177;45.900;5.946;2023-04-05T09:09:51;6.25;;;3.88;;
49310;SDS011;35177;45.900;5.946;2023-04-05T09:12:19;4.72;;;3.53;;
49310;SDS011;35177;45.900;5.946;2023-04-05T09:14:44;7.65;;;4.07;;
49310;SDS011;35177;45.900;5.946;2023-04-05T09:17:12;6.65;;;4.28;;
49310;SDS011;35177;45.900;5.946;2023-04-05T09:19:39;5.20;;;3.55;;
49310;SDS011;35177;45.900;5.946;2023-04-05T09:22:05;5.22;;;3.13;;
49310;SDS011;35177;45.900;5.946;2023-04-05T09:24:41;7.97;;;4.03;;
49310;SDS011;35177;45.900;5.946;2023-04-05T09:27:07;5.78;;;4.22;;
49310;SDS011;35177;45.900;5.946;2023-04-05T09:29:33;6.75;;;3.50;;
49310;SDS011;35177;45.900;5.946;2023-04-05T09:32:02;4.18;;;3.20;;
49310;SDS011;35177;45.900;5.946;2023-04-05T09:34:29;7.80;;;3.40;;
49310;SDS011;35177;45.900;5.946;2023-04-05T09:36:55;5.45;;;3.47;;
49310;SDS011;35177;45.900;5.946;2023-04-05T09:39:20;6.28;;;2.50;;
49310;SDS011;35177;45.900;5.946;2023-04-05T09:42:03;5.65;;;2.78;;
49310;SDS011;35177;45.900;5.946;2023-04-05T09:44:47;5.28;;;2.90;;
49310;SDS011;35177;45.900;5.946;2023-04-05T09:47:16;4.20;;;2.80;;
49310;SDS011;35177;45.900;5.946;2023-04-05T09:49:42;3.97;;;2.40;;
49310;SDS011;35177;45.900;5.946;2023-04-05T09:52:20;2.85;;;2.60;;
49310;SDS011;35177;45.900;5.946;2023-04-05T09:54:46;2.67;;;2.30;;
49310;SDS011;35177;45.900;5.946;2023-04-05T09:57:11;4.88;;;3.22;;
49310;SDS011;35177;45.900;5.946;2023-04-05T09:59:40;3.45;;;2.85;;
49310;SDS011;35177;45.900;5.946;2023-04-05T10:02:05;6.03;;;2.75;;
49310;SDS011;35177;45.900;5.946;2023-04-05T10:04:37;2.63;;;2.05;;
49310;SDS011;35177;45.900;5.946;2023-04-05T10:07:03;2.53;;;1.83;;
49310;SDS011;35177;45.900;5.946;2023-04-05T10:09:28;7.65;;;2.10;;
49310;SDS011;35177;45.900;5.946;2023-04-05T10:11:53;4.47;;;2.85;;
49310;SDS011;35177;45.900;5.946;2023-04-05T10:14:20;4.13;;;2.95;;
49310;SDS011;35177;45.900;5.946;2023-04-05T10:19:36;3.55;;;2.33;;
49310;SDS011;35177;45.900;5.946;2023-04-05T10:22:04;4.07;;;2.10;;
49310;SDS011;35177;45.900;5.946;2023-04-05T10:24:54;2.40;;;2.15;;
49310;SDS011;35177;45.900;5.946;2023-04-05T10:30:25;4.18;;;2.28;;
49310;SDS011;35177;45.900;5.946;2023-04-05T10:33:38;2.88;;;2.33;;
49310;SDS011;35177;45.900;5.946;2023-04-05T10:38:21;4.07;;;2.80;;
49310;SDS011;35177;45.900;5.946;2023-04-05T10:40:47;5.80;;;2.00;;
49310;SDS011;35177;45.900;5.946;2023-04-05T10:43:18;4.28;;;2.60;;
49310;SDS011;35177;45.900;5.946;2023-04-05T10:45:45;2.97;;;2.25;;
49310;SDS011;35177;45.900;5.946;2023-04-05T10:48:16;2.78;;;2.25;;
49310;SDS011;35177;45.900;5.946;2023-04-05T10:50:43;3.45;;;2.40;;
49310;SDS011;35177;45.900;5.946;2023-04-05T10:53:08;4.85;;;2.40;;
49310;SDS011;35177;45.900;5.946;2023-04-05T10:55:33;4.00;;;2.35;;
49310;SDS011;35177;45.900;5.946;2023-04-05T10:57:59;3.45;;;2.10;;
49310;SDS011;35177;45.900;5.946;2023-04-05T11:00:25;2.92;;;2.03;;
49310;SDS011;35177;45.900;5.946;2023-04-05T11:02:54;3.00;;;2.40;;
49310;SDS011;35177;45.900;5.946;2023-04-05T11:05:28;3.35;;;2.50;;
49310;SDS011;35177;45.900;5.946;2023-04-05T11:07:53;4.95;;;2.60;;
49310;SDS011;35177;45.900;5.946;2023-04-05T11:10:22;3.97;;;2.80;;
49310;SDS011;35177;45.900;5.946;2023-04-05T11:15:46;3.15;;;2.47;;
49310;SDS011;35177;45.900;5.946;2023-04-05T11:20:46;4.20;;;2.70;;
49310;SDS011;35177;45.900;5.946;2023-04-05T11:23:13;3.83;;;2.40;;
49310;SDS011;35177;45.900;5.946;2023-04-05T11:25:39;6.78;;;2.67;;
49310;SDS011;35177;45.900;5.946;2023-04-05T11:28:05;4.22;;;2.72;;
49310;SDS011;35177;45.900;5.946;2023-04-05T11:30:48;3.53;;;2.72;;
49310;SDS011;35177;45.900;5.946;2023-04-05T11:35:59;3.47;;;2.15;;
49310;SDS011;35177;45.900;5.946;2023-04-05T11:38:26;4.68;;;2.30;;
49310;SDS011;35177;45.900;5.946;2023-04-05T11:40:51;4.15;;;2.80;;
49310;SDS011;35177;45.900;5.946;2023-04-05T11:43:29;3.40;;;2.45;;
49310;SDS011;35177;45.900;5.946;2023-04-05T11:45:54;5.15;;;3.15;;
49310;SDS011;35177;45.900;5.946;2023-04-05T11:48:20;3.35;;;2.03;;
49310;SDS011;35177;45.900;5.946;2023-04-05T11:50:46;3.05;;;2.20;;
49310;SDS011;35177;45.900;5.946;2023-04-05T11:53:15;3.83;;;2.30;;
49310;SDS011;35177;45.900;5.946;2023-04-05T11:55:41;3.25;;;2.35;;
49310;SDS011;35177;45.900;5.946;2023-04-05T11:58:10;2.95;;;2.67;;
49310;SDS011;35177;45.900;5.946;2023-04-05T12:00:36;5.18;;;3.00;;
49310;SDS011;35177;45.900;5.946;2023-04-05T12:03:02;3.22;;;2.50;;
49310;SDS011;35177;45.900;5.946;2023-04-05T12:05:43;2.85;;;2.38;;
49310;SDS011;35177;45.900;5.946;2023-04-05T12:08:08;2.75;;;2.35;;
49310;SDS011;35177;45.900;5.946;2023-04-05T12:10:33;3.97;;;2.30;;
49310;SDS011;35177;45.900;5.946;2023-04-05T12:12:58;4.20;;;2.40;;
49310;SDS011;35177;45.900;5.946;2023-04-05T12:15:24;3.05;;;2.00;;
49310;SDS011;35177;45.900;5.946;2023-04-05T12:17:50;4.15;;;2.60;;
49310;SDS011;35177;45.900;5.946;2023-04-05T12:20:16;3.83;;;2.00;;
49310;SDS011;35177;45.900;5.946;2023-04-05T12:22:43;5.72;;;1.95;;
49310;SDS011;35177;45.900;5.946;2023-04-05T12:25:09;2.00;;;1.80;;
49310;SDS011;35177;45.900;5.946;2023-04-05T12:27:35;3.13;;;1.80;;
49310;SDS011;35177;45.900;5.946;2023-04-05T12:30:19;2.67;;;2.17;;
49310;SDS011;35177;45.900;5.946;2023-04-05T12:32:54;2.25;;;1.90;;
49310;SDS011;35177;45.900;5.946;2023-04-05T12:35:23;2.47;;;2.28;;
49310;SDS011;35177;45.900;5.946;2023-04-05T12:37:51;3.92;;;2.20;;
49310;SDS011;35177;45.900;5.946;2023-04-05T12:40:21;4.35;;;2.38;;
49310;SDS011;35177;45.900;5.946;2023-04-05T12:42:46;6.47;;;3.75;;
49310;SDS011;35177;45.900;5.946;2023-04-05T12:45:12;8.73;;;3.03;;
49310;SDS011;35177;45.900;5.946;2023-04-05T12:47:52;3.13;;;2.83;;
49310;SDS011;35177;45.900;5.946;2023-04-05T12:50:24;4.28;;;2.70;;
49310;SDS011;35177;45.900;5.946;2023-04-05T12:52:51;5.05;;;3.47;;
49310;SDS011;35177;45.900;5.946;2023-04-05T12:55:16;5.88;;;2.80;;
49310;SDS011;35177;45.900;5.946;2023-04-05T12:57:42;3.65;;;2.45;;
49310;SDS011;35177;45.900;5.946;2023-04-05T13:00:07;3.60;;;2.72;;
49310;SDS011;35177;45.900;5.946;2023-04-05T13:02:35;4.15;;;2.75;;
49310;SDS011;35177;45.900;5.946;2023-04-05T13:05:00;3.72;;;2.08;;
49310;SDS011;35177;45.900;5.946;2023-04-05T13:07:25;3.22;;;2.35;;
49310;SDS011;35177;45.900;5.946;2023-04-05T13:09:51;3.05;;;2.50;;
49310;SDS011;35177;45.900;5.946;2023-04-05T13:12:16;3.85;;;2.50;;
49310;SDS011;35177;45.900;5.946;2023-04-05T13:14:41;3.58;;;2.58;;
49310;SDS011;35177;45.900;5.946;2023-04-05T13:17:06;3.83;;;2.72;;
49310;SDS011;35177;45.900;5.946;2023-04-05T13:19:32;3.85;;;2.92;;
49310;SDS011;35177;45.900;5.946;2023-04-05T13:21:57;4.40;;;3.13;;
49310;SDS011;35177;45.900;5.946;2023-04-05T13:24:22;5.65;;;3.10;;
49310;SDS011;35177;45.900;5.946;2023-04-05T13:26:48;5.00;;;3.15;;
49310;SDS011;35177;45.900;5.946;2023-04-05T13:29:13;3.55;;;2.83;;
49310;SDS011;35177;45.900;5.946;2023-04-05T13:31:38;7.68;;;3.10;;
49310;SDS011;35177;45.900;5.946;2023-04-05T13:34:05;5.03;;;2.80;;
49310;SDS011;35177;45.900;5.946;2023-04-05T13:36:30;5.68;;;3.13;;
49310;SDS011;35177;45.900;5.946;2023-04-05T13:38:55;4.70;;;3.28;;
49310;SDS011;35177;45.900;5.946;2023-04-05T13:41:20;6.07;;;2.85;;
49310;SDS011;35177;45.900;5.946;2023-04-05T13:43:46;3.80;;;2.55;;
49310;SDS011;35177;45.900;5.946;2023-04-05T13:46:11;5.65;;;3.28;;
49310;SDS011;35177;45.900;5.946;2023-04-05T13:48:36;4.75;;;3.30;;
49310;SDS011;35177;45.900;5.946;2023-04-05T13:51:02;5.07;;;2.72;;
49310;SDS011;35177;45.900;5.946;2023-04-05T13:53:28;3.50;;;2.40;;
49310;SDS011;35177;45.900;5.946;2023-04-05T13:55:53;3.75;;;2.40;;
49310;SDS011;35177;45.900;5.946;2023-04-05T13:58:18;3.80;;;2.72;;
49310;SDS011;35177;45.900;5.946;2023-04-05T14:00:43;5.32;;;2.90;;
49310;SDS011;35177;45.900;5.946;2023-04-05T14:03:09;6.82;;;2.72;;
49310;SDS011;35177;45.900;5.946;2023-04-05T14:05:34;3.30;;;2.78;;
49310;SDS011;35177;45.900;5.946;2023-04-05T14:07:59;4.22;;;2.70;;
49310;SDS011;35177;45.900;5.946;2023-04-05T14:10:25;4.78;;;2.92;;
49310;SDS011;35177;45.900;5.946;2023-04-05T14:12:50;4.63;;;2.60;;
49310;SDS011;35177;45.900;5.946;2023-04-05T14:15:15;4.55;;;2.70;;
49310;SDS011;35177;45.900;5.946;2023-04-05T14:17:41;4.93;;;2.95;;
49310;SDS011;35177;45.900;5.946;2023-04-05T14:20:06;3.83;;;2.35;;
49310;SDS011;35177;45.900;5.946;2023-04-05T14:22:32;4.13;;;2.53;;
49310;SDS011;35177;45.900;5.946;2023-04-05T14:24:57;4.18;;;2.15;;
49310;SDS011;35177;45.900;5.946;2023-04-05T14:27:22;2.47;;;2.13;;
49310;SDS011;35177;45.900;5.946;2023-04-05T14:29:51;3.35;;;2.40;;
49310;SDS011;35177;45.900;5.946;2023-04-05T14:32:16;4.53;;;2.70;;
49310;SDS011;35177;45.900;5.946;2023-04-05T14:34:42;5.38;;;2.30;;
49310;SDS011;35177;45.900;5.946;2023-04-05T14:37:07;2.78;;;2.33;;
49310;SDS011;35177;45.900;5.946;2023-04-05T14:39:32;3.03;;;2.13;;
49310;SDS011;35177;45.900;5.946;2023-04-05T14:41:58;4.05;;;2.40;;
49310;SDS011;35177;45.900;5.946;2023-04-05T14:44:23;3.83;;;2.60;;
49310;SDS011;35177;45.900;5.946;2023-04-05T14:46:50;4.25;;;2.47;;
49310;SDS011;35177;45.900;5.946;2023-04-05T14:49:16;6.47;;;2.78;;
49310;SDS011;35177;45.900;5.946;2023-04-05T14:51:41;4.22;;;2.65;;
49310;SDS011;35177;45.900;5.946;2023-04-05T14:54:07;2.83;;;2.22;;
49310;SDS011;35177;45.900;5.946;2023-04-05T14:56:32;2.80;;;2.30;;
49310;SDS011;35177;45.900;5.946;2023-04-05T14:58:58;4.20;;;2.50;;
49310;SDS011;35177;45.900;5.946;2023-04-05T15:01:23;3.47;;;2.60;;
49310;SDS011;35177;45.900;5.946;2023-04-05T15:03:49;5.40;;;2.60;;
49310;SDS011;35177;45.900;5.946;2023-04-05T15:06:14;3.50;;;2.15;;
49310;SDS011;35177;45.900;5.946;2023-04-05T15:08:40;3.60;;;2.10;;
49310;SDS011;35177;45.900;5.946;2023-04-05T15:11:06;5.07;;;2.30;;
49310;SDS011;35177;45.900;5.946;2023-04-05T15:13:31;3.05;;;1.95;;
49310;SDS011;35177;45.900;5.946;2023-04-05T15:15:57;3.55;;;2.33;;
49310;SDS011;35177;45.900;5.946;2023-04-05T15:18:23;6.35;;;2.85;;